sensor_id;sensor_type;location;lat;lon;timestamp;temperature;humidity
21928;DHT22;11128;51.096;17.190;2022-09-12T00:02:55;14.00;99.90
21928;DHT22;11128;51.096;17.190;2022-09-12T00:07:56;14.00;99.90
21928;DHT22;11128;51.096;17.190;2022-09-12T00:12:58;14.00;99.90
21928;DHT22;11128;51.096;17.190;2022-09-12T00:18:00;13.90;99.90
21928;DHT22;11128;51.096;17.190;2022-09-12T00:23:01;14.00;99.90
21928;DHT22;11128;51.096;17.190;2022-09-12T00:28:03;13.90;99.90
21928;DHT22;11128;51.096;17.190;2022-09-12T00:33:04;14.00;99.90
21928;DHT22;11128;51.096;17.190;2022-09-12T00:38:06;14.00;99.90
21928;DHT22;11128;51.096;17.190;2022-09-12T00:43:37;14.00;99.90
21928;DHT22;11128;51.096;17.190;2022-09-12T00:48:43;14.10;99.90
21928;DHT22;11128;51.096;17.190;2022-09-12T00:53:47;14.10;99.90
21928;DHT22;11128;51.096;17.190;2022-09-12T00:58:56;14.10;99.90
21928;DHT22;11128;51.096;17.190;2022-09-12T01:04:00;14.10;99.90
21928;DHT22;11128;51.096;17.190;2022-09-12T01:09:03;14.10;99.90
21928;DHT22;11128;51.096;17.190;2022-09-12T01:14:06;14.00;99.90
21928;DHT22;11128;51.096;17.190;2022-09-12T01:35:24;13.80;99.90
21928;DHT22;11128;51.096;17.190;2022-09-12T01:50:59;13.80;99.90
21928;DHT22;11128;51.096;17.190;2022-09-12T01:56:30;13.80;99.90
21928;DHT22;11128;51.096;17.190;2022-09-12T02:01:35;13.70;99.90
21928;DHT22;11128;51.096;17.190;2022-09-12T02:06:57;13.60;99.90
21928;DHT22;11128;51.096;17.190;2022-09-12T02:12:00;13.60;99.90
21928;DHT22;11128;51.096;17.190;2022-09-12T02:17:07;13.60;99.90
21928;DHT22;11128;51.096;17.190;2022-09-12T02:22:15;13.60;99.90
21928;DHT22;11128;51.096;17.190;2022-09-12T02:27:41;13.60;99.90
21928;DHT22;11128;51.096;17.190;2022-09-12T02:33:16;13.60;99.90
21928;DHT22;11128;51.096;17.190;2022-09-12T02:38:45;13.50;99.90
21928;DHT22;11128;51.096;17.190;2022-09-12T02:43:49;13.40;99.90
21928;DHT22;11128;51.096;17.190;2022-09-12T02:48:51;13.40;99.90
21928;DHT22;11128;51.096;17.190;2022-09-12T02:53:53;13.30;99.90
21928;DHT22;11128;51.096;17.190;2022-09-12T02:59:04;13.40;99.90
21928;DHT22;11128;51.096;17.190;2022-09-12T03:26:01;13.30;99.90
21928;DHT22;11128;51.096;17.190;2022-09-12T03:31:17;13.30;99.90
21928;DHT22;11128;51.096;17.190;2022-09-12T03:36:23;13.30;99.90
21928;DHT22;11128;51.096;17.190;2022-09-12T03:41:25;13.30;99.90
21928;DHT22;11128;51.096;17.190;2022-09-12T03:46:26;13.30;99.90
21928;DHT22;11128;51.096;17.190;2022-09-12T03:51:28;13.40;99.90
21928;DHT22;11128;51.096;17.190;2022-09-12T03:56:29;13.40;99.90
21928;DHT22;11128;51.096;17.190;2022-09-12T04:01:32;13.30;99.90
21928;DHT22;11128;51.096;17.190;2022-09-12T04:06:33;13.40;99.90
21928;DHT22;11128;51.096;17.190;2022-09-12T04:11:36;13.30;99.90
21928;DHT22;11128;51.096;17.190;2022-09-12T04:16:37;13.30;99.90
21928;DHT22;11128;51.096;17.190;2022-09-12T04:21:39;13.30;99.90
21928;DHT22;11128;51.096;17.190;2022-09-12T04:26:40;13.30;99.90
21928;DHT22;11128;51.096;17.190;2022-09-12T04:31:42;13.30;99.90
21928;DHT22;11128;51.096;17.190;2022-09-12T04:36:44;13.30;99.90
21928;DHT22;11128;51.096;17.190;2022-09-12T04:41:45;13.30;99.90
21928;DHT22;11128;51.096;17.190;2022-09-12T04:46:47;13.40;99.90
21928;DHT22;11128;51.096;17.190;2022-09-12T04:51:48;13.40;99.90
21928;DHT22;11128;51.096;17.190;2022-09-12T04:56:53;13.50;99.90
21928;DHT22;11128;51.096;17.190;2022-09-12T05:01:55;13.50;99.90
21928;DHT22;11128;51.096;17.190;2022-09-12T05:06:57;13.50;99.90
21928;DHT22;11128;51.096;17.190;2022-09-12T05:11:58;13.50;99.90
21928;DHT22;11128;51.096;17.190;2022-09-12T05:17:01;13.60;99.90
21928;DHT22;11128;51.096;17.190;2022-09-12T05:22:02;13.60;99.90
21928;DHT22;11128;51.096;17.190;2022-09-12T05:27:06;13.70;99.90
21928;DHT22;11128;51.096;17.190;2022-09-12T05:32:08;13.70;99.90
21928;DHT22;11128;51.096;17.190;2022-09-12T05:37:10;13.90;99.90
21928;DHT22;11128;51.096;17.190;2022-09-12T05:42:11;14.00;99.90
21928;DHT22;11128;51.096;17.190;2022-09-12T05:47:13;14.10;99.90
21928;DHT22;11128;51.096;17.190;2022-09-12T05:52:14;14.20;99.90
21928;DHT22;11128;51.096;17.190;2022-09-12T05:57:16;14.30;99.90
21928;DHT22;11128;51.096;17.190;2022-09-12T06:02:18;14.50;99.90
21928;DHT22;11128;51.096;17.190;2022-09-12T06:07:19;14.70;99.90
21928;DHT22;11128;51.096;17.190;2022-09-12T06:12:21;14.80;1.00
21928;DHT22;11128;51.096;17.190;2022-09-12T06:17:23;15.00;1.00
21928;DHT22;11128;51.096;17.190;2022-09-12T06:22:24;15.20;1.00
21928;DHT22;11128;51.096;17.190;2022-09-12T06:27:26;15.30;1.00
21928;DHT22;11128;51.096;17.190;2022-09-12T06:32:29;15.40;1.00
21928;DHT22;11128;51.096;17.190;2022-09-12T06:37:31;15.40;99.90
21928;DHT22;11128;51.096;17.190;2022-09-12T06:42:33;15.50;1.00
21928;DHT22;11128;51.096;17.190;2022-09-12T06:47:34;15.70;1.00
21928;DHT22;11128;51.096;17.190;2022-09-12T06:52:36;15.80;99.90
21928;DHT22;11128;51.096;17.190;2022-09-12T06:57:37;16.00;1.00
21928;DHT22;11128;51.096;17.190;2022-09-12T07:02:39;16.30;99.90
21928;DHT22;11128;51.096;17.190;2022-09-12T07:07:40;16.50;1.00
21928;DHT22;11128;51.096;17.190;2022-09-12T07:12:42;16.70;1.00
21928;DHT22;11128;51.096;17.190;2022-09-12T07:17:43;16.90;99.90
21928;DHT22;11128;51.096;17.190;2022-09-12T07:22:45;17.10;1.00
21928;DHT22;11128;51.096;17.190;2022-09-12T07:27:46;17.30;1.00
21928;DHT22;11128;51.096;17.190;2022-09-12T07:32:52;17.20;1.00
21928;DHT22;11128;51.096;17.190;2022-09-12T07:37:54;17.40;1.00
21928;DHT22;11128;51.096;17.190;2022-09-12T07:42:56;17.70;99.90
21928;DHT22;11128;51.096;17.190;2022-09-12T07:47:58;18.00;1.00
21928;DHT22;11128;51.096;17.190;2022-09-12T07:52:59;18.00;1.00
21928;DHT22;11128;51.096;17.190;2022-09-12T07:58:01;18.00;1.00
21928;DHT22;11128;51.096;17.190;2022-09-12T08:03:04;18.10;1.00
21928;DHT22;11128;51.096;17.190;2022-09-12T08:08:08;18.30;1.00
21928;DHT22;11128;51.096;17.190;2022-09-12T08:13:10;18.90;78.70
21928;DHT22;11128;51.096;17.190;2022-09-12T08:18:12;19.50;1.00
21928;DHT22;11128;51.096;17.190;2022-09-12T08:23:13;19.80;1.00
21928;DHT22;11128;51.096;17.190;2022-09-12T08:28:15;19.60;99.90
21928;DHT22;11128;51.096;17.190;2022-09-12T08:33:17;19.30;1.00
21928;DHT22;11128;51.096;17.190;2022-09-12T08:38:18;20.00;1.00
21928;DHT22;11128;51.096;17.190;2022-09-12T08:49:12;20.00;99.90
21928;DHT22;11128;51.096;17.190;2022-09-12T08:54:27;19.60;1.00
21928;DHT22;11128;51.096;17.190;2022-09-12T08:59:38;19.20;99.90
21928;DHT22;11128;51.096;17.190;2022-09-12T09:04:49;19.20;1.00
21928;DHT22;11128;51.096;17.190;2022-09-12T09:20:41;21.40;99.90
21928;DHT22;11128;51.096;17.190;2022-09-12T09:25:53;21.00;99.90
21928;DHT22;11128;51.096;17.190;2022-09-12T09:30:57;20.60;99.90
21928;DHT22;11128;51.096;17.190;2022-09-12T09:46:26;20.00;99.90
21928;DHT22;11128;51.096;17.190;2022-09-12T09:51:34;20.20;99.90
21928;DHT22;11128;51.096;17.190;2022-09-12T09:56:39;20.20;99.90
21928;DHT22;11128;51.096;17.190;2022-09-12T10:01:56;20.90;99.90
21928;DHT22;11128;51.096;17.190;2022-09-12T10:07:04;22.20;99.90
21928;DHT22;11128;51.096;17.190;2022-09-12T10:12:26;22.50;73.90
21928;DHT22;11128;51.096;17.190;2022-09-12T10:17:41;22.90;44.70
21928;DHT22;11128;51.096;17.190;2022-09-12T10:22:46;23.20;1.00
21928;DHT22;11128;51.096;17.190;2022-09-12T10:27:59;23.50;1.00
21928;DHT22;11128;51.096;17.190;2022-09-12T10:33:06;23.50;1.00
21928;DHT22;11128;51.096;17.190;2022-09-12T10:38:26;22.40;1.00
21928;DHT22;11128;51.096;17.190;2022-09-12T10:43:34;21.80;1.00
21928;DHT22;11128;51.096;17.190;2022-09-12T10:48:36;22.60;1.00
21928;DHT22;11128;51.096;17.190;2022-09-12T10:53:45;23.10;1.00
21928;DHT22;11128;51.096;17.190;2022-09-12T11:15:40;23.90;1.00
21928;DHT22;11128;51.096;17.190;2022-09-12T11:26:16;26.30;1.00
21928;DHT22;11128;51.096;17.190;2022-09-12T11:36:50;25.90;1.00
21928;DHT22;11128;51.096;17.190;2022-09-12T11:42:02;25.00;1.00
21928;DHT22;11128;51.096;17.190;2022-09-12T11:47:10;25.10;1.00
21928;DHT22;11128;51.096;17.190;2022-09-12T11:52:20;26.10;1.00
21928;DHT22;11128;51.096;17.190;2022-09-12T11:57:40;26.30;1.00
21928;DHT22;11128;51.096;17.190;2022-09-12T12:08:03;25.00;1.00
21928;DHT22;11128;51.096;17.190;2022-09-12T12:13:16;25.10;1.00
21928;DHT22;11128;51.096;17.190;2022-09-12T12:18:26;25.10;1.00
21928;DHT22;11128;51.096;17.190;2022-09-12T12:23:32;24.10;1.00
21928;DHT22;11128;51.096;17.190;2022-09-12T12:38:43;25.10;1.00
21928;DHT22;11128;51.096;17.190;2022-09-12T12:43:49;25.00;1.00
21928;DHT22;11128;51.096;17.190;2022-09-12T13:00:03;23.80;1.00
21928;DHT22;11128;51.096;17.190;2022-09-12T13:05:16;23.10;1.00
21928;DHT22;11128;51.096;17.190;2022-09-12T13:10:25;22.60;1.00
21928;DHT22;11128;51.096;17.190;2022-09-12T13:21:18;21.70;1.00
21928;DHT22;11128;51.096;17.190;2022-09-12T13:26:25;21.40;1.00
21928;DHT22;11128;51.096;17.190;2022-09-12T13:31:27;21.20;1.00
21928;DHT22;11128;51.096;17.190;2022-09-12T13:46:59;21.10;55.00
21928;DHT22;11128;51.096;17.190;2022-09-12T13:52:08;21.20;17.40
21928;DHT22;11128;51.096;17.190;2022-09-12T13:57:36;21.30;93.90
21928;DHT22;11128;51.096;17.190;2022-09-12T14:02:39;21.60;93.70
21928;DHT22;11128;51.096;17.190;2022-09-12T14:12:57;21.90;14.00
21928;DHT22;11128;51.096;17.190;2022-09-12T14:18:00;21.90;1.00
21928;DHT22;11128;51.096;17.190;2022-09-12T14:23:31;21.70;1.00
21928;DHT22;11128;51.096;17.190;2022-09-12T14:28:33;21.40;10.40
21928;DHT22;11128;51.096;17.190;2022-09-12T14:33:55;21.00;7.30
21928;DHT22;11128;51.096;17.190;2022-09-12T14:39:02;20.70;1.40
21928;DHT22;11128;51.096;17.190;2022-09-12T14:44:14;20.50;89.60
21928;DHT22;11128;51.096;17.190;2022-09-12T14:49:25;20.20;1.00
21928;DHT22;11128;51.096;17.190;2022-09-12T15:10:19;19.80;1.00
21928;DHT22;11128;51.096;17.190;2022-09-12T15:15:26;19.70;1.00
21928;DHT22;11128;51.096;17.190;2022-09-12T15:20:28;19.50;65.70
21928;DHT22;11128;51.096;17.190;2022-09-12T15:25:30;19.40;99.90
21928;DHT22;11128;51.096;17.190;2022-09-12T15:30:31;19.30;99.90
21928;DHT22;11128;51.096;17.190;2022-09-12T15:35:34;19.20;99.90
21928;DHT22;11128;51.096;17.190;2022-09-12T15:40:35;19.20;99.90
21928;DHT22;11128;51.096;17.190;2022-09-12T15:45:37;19.10;1.00
21928;DHT22;11128;51.096;17.190;2022-09-12T15:50:40;19.00;1.00
21928;DHT22;11128;51.096;17.190;2022-09-12T15:55:41;18.90;1.00
21928;DHT22;11128;51.096;17.190;2022-09-12T16:00:44;18.80;1.00
21928;DHT22;11128;51.096;17.190;2022-09-12T16:05:45;18.60;99.90
21928;DHT22;11128;51.096;17.190;2022-09-12T16:10:54;18.40;1.00
21928;DHT22;11128;51.096;17.190;2022-09-12T16:15:58;18.30;1.00
21928;DHT22;11128;51.096;17.190;2022-09-12T16:21:00;18.10;99.90
21928;DHT22;11128;51.096;17.190;2022-09-12T16:26:04;17.90;1.00
21928;DHT22;11128;51.096;17.190;2022-09-12T16:31:07;17.70;99.90
21928;DHT22;11128;51.096;17.190;2022-09-12T16:36:12;17.50;1.00
21928;DHT22;11128;51.096;17.190;2022-09-12T16:41:16;17.40;1.00
21928;DHT22;11128;51.096;17.190;2022-09-12T16:46:25;17.30;1.00
21928;DHT22;11128;51.096;17.190;2022-09-12T16:51:32;17.10;99.90
21928;DHT22;11128;51.096;17.190;2022-09-12T16:56:36;16.80;99.90
21928;DHT22;11128;51.096;17.190;2022-09-12T17:01:37;16.70;99.90
21928;DHT22;11128;51.096;17.190;2022-09-12T17:06:39;16.40;1.00
21928;DHT22;11128;51.096;17.190;2022-09-12T17:11:42;16.30;1.00
21928;DHT22;11128;51.096;17.190;2022-09-12T17:16:44;16.20;1.00
21928;DHT22;11128;51.096;17.190;2022-09-12T17:21:47;15.90;1.00
21928;DHT22;11128;51.096;17.190;2022-09-12T17:26:51;15.80;1.00
21928;DHT22;11128;51.096;17.190;2022-09-12T17:31:54;15.70;99.90
21928;DHT22;11128;51.096;17.190;2022-09-12T17:36:56;15.50;99.90
21928;DHT22;11128;51.096;17.190;2022-09-12T17:41:58;15.30;1.00
21928;DHT22;11128;51.096;17.190;2022-09-12T17:47:00;15.20;1.00
21928;DHT22;11128;51.096;17.190;2022-09-12T17:52:02;15.10;1.00
21928;DHT22;11128;51.096;17.190;2022-09-12T17:57:04;15.00;1.00
21928;DHT22;11128;51.096;17.190;2022-09-12T18:02:10;14.90;1.00
21928;DHT22;11128;51.096;17.190;2022-09-12T18:07:17;14.80;99.80
21928;DHT22;11128;51.096;17.190;2022-09-12T18:12:19;14.70;99.90
21928;DHT22;11128;51.096;17.190;2022-09-12T18:17:20;14.50;99.90
21928;DHT22;11128;51.096;17.190;2022-09-12T18:22:22;14.50;99.90
21928;DHT22;11128;51.096;17.190;2022-09-12T18:27:24;14.40;99.90
21928;DHT22;11128;51.096;17.190;2022-09-12T18:32:26;14.20;99.90
21928;DHT22;11128;51.096;17.190;2022-09-12T18:37:28;14.20;1.00
21928;DHT22;11128;51.096;17.190;2022-09-12T18:42:30;14.20;1.00
21928;DHT22;11128;51.096;17.190;2022-09-12T18:47:31;14.10;1.00
21928;DHT22;11128;51.096;17.190;2022-09-12T18:52:34;14.10;1.00
21928;DHT22;11128;51.096;17.190;2022-09-12T18:57:36;14.20;1.00
21928;DHT22;11128;51.096;17.190;2022-09-12T19:02:38;14.10;1.00
21928;DHT22;11128;51.096;17.190;2022-09-12T19:07:40;13.90;1.00
21928;DHT22;11128;51.096;17.190;2022-09-12T19:12:42;13.80;1.00
21928;DHT22;11128;51.096;17.190;2022-09-12T19:17:44;13.80;1.00
21928;DHT22;11128;51.096;17.190;2022-09-12T19:22:46;13.60;1.00
21928;DHT22;11128;51.096;17.190;2022-09-12T19:27:47;13.50;1.00
21928;DHT22;11128;51.096;17.190;2022-09-12T19:32:49;13.40;1.00
21928;DHT22;11128;51.096;17.190;2022-09-12T19:37:52;13.30;1.00
21928;DHT22;11128;51.096;17.190;2022-09-12T19:42:56;13.30;1.00
21928;DHT22;11128;51.096;17.190;2022-09-12T19:48:09;13.20;1.00
21928;DHT22;11128;51.096;17.190;2022-09-12T19:53:11;13.10;1.00
21928;DHT22;11128;51.096;17.190;2022-09-12T19:58:13;13.10;1.00
21928;DHT22;11128;51.096;17.190;2022-09-12T20:03:15;13.20;1.00
21928;DHT22;11128;51.096;17.190;2022-09-12T20:08:17;13.10;1.00
21928;DHT22;11128;51.096;17.190;2022-09-12T20:13:20;13.10;1.00
21928;DHT22;11128;51.096;17.190;2022-09-12T20:18:22;13.00;1.00
21928;DHT22;11128;51.096;17.190;2022-09-12T20:23:23;12.90;1.00
21928;DHT22;11128;51.096;17.190;2022-09-12T20:28:26;12.90;1.00
21928;DHT22;11128;51.096;17.190;2022-09-12T20:33:28;12.90;1.00
21928;DHT22;11128;51.096;17.190;2022-09-12T20:38:30;12.80;1.00
21928;DHT22;11128;51.096;17.190;2022-09-12T20:43:32;12.70;1.00
21928;DHT22;11128;51.096;17.190;2022-09-12T20:48:34;12.70;1.00
21928;DHT22;11128;51.096;17.190;2022-09-12T20:53:35;12.60;1.00
21928;DHT22;11128;51.096;17.190;2022-09-12T20:58:37;12.60;1.00
21928;DHT22;11128;51.096;17.190;2022-09-12T21:03:40;12.80;1.00
21928;DHT22;11128;51.096;17.190;2022-09-12T21:08:42;12.70;1.00
21928;DHT22;11128;51.096;17.190;2022-09-12T21:13:45;12.60;1.00
21928;DHT22;11128;51.096;17.190;2022-09-12T21:18:51;12.50;1.00
21928;DHT22;11128;51.096;17.190;2022-09-12T21:23:58;12.40;1.00
21928;DHT22;11128;51.096;17.190;2022-09-12T21:29:00;12.60;99.90
21928;DHT22;11128;51.096;17.190;2022-09-12T21:34:01;12.90;1.00
21928;DHT22;11128;51.096;17.190;2022-09-12T21:39:03;13.20;1.00
21928;DHT22;11128;51.096;17.190;2022-09-12T21:44:05;13.10;1.00
21928;DHT22;11128;51.096;17.190;2022-09-12T21:49:07;12.70;1.00
21928;DHT22;11128;51.096;17.190;2022-09-12T21:54:09;12.40;1.00
21928;DHT22;11128;51.096;17.190;2022-09-12T21:59:10;12.50;45.60
21928;DHT22;11128;51.096;17.190;2022-09-12T22:04:12;12.40;1.00
21928;DHT22;11128;51.096;17.190;2022-09-12T22:09:14;12.20;1.00
21928;DHT22;11128;51.096;17.190;2022-09-12T22:14:17;12.40;1.00
21928;DHT22;11128;51.096;17.190;2022-09-12T22:19:19;12.20;1.00
21928;DHT22;11128;51.096;17.190;2022-09-12T22:24:22;12.00;1.00
21928;DHT22;11128;51.096;17.190;2022-09-12T22:29:31;11.90;1.00
21928;DHT22;11128;51.096;17.190;2022-09-12T22:34:33;11.80;1.00
21928;DHT22;11128;51.096;17.190;2022-09-12T22:39:35;11.70;1.00
21928;DHT22;11128;51.096;17.190;2022-09-12T22:44:37;11.60;1.00
21928;DHT22;11128;51.096;17.190;2022-09-12T22:49:38;11.50;1.00
21928;DHT22;11128;51.096;17.190;2022-09-12T22:54:41;11.50;1.00
21928;DHT22;11128;51.096;17.190;2022-09-12T22:59:42;11.40;1.00
21928;DHT22;11128;51.096;17.190;2022-09-12T23:04:43;11.40;1.00
21928;DHT22;11128;51.096;17.190;2022-09-12T23:09:46;11.30;1.00
21928;DHT22;11128;51.096;17.190;2022-09-12T23:14:48;11.30;1.00
21928;DHT22;11128;51.096;17.190;2022-09-12T23:19:49;11.30;1.00
21928;DHT22;11128;51.096;17.190;2022-09-12T23:24:50;11.20;1.00
21928;DHT22;11128;51.096;17.190;2022-09-12T23:29:52;11.10;1.00
21928;DHT22;11128;51.096;17.190;2022-09-12T23:34:54;11.00;1.00
21928;DHT22;11128;51.096;17.190;2022-09-12T23:39:56;11.00;1.00
21928;DHT22;11128;51.096;17.190;2022-09-12T23:44:57;11.00;1.00
21928;DHT22;11128;51.096;17.190;2022-09-12T23:49:58;10.90;1.00
21928;DHT22;11128;51.096;17.190;2022-09-12T23:55:00;10.90;1.00
